To NAV CANADA Home Page Login to a new session Search on AWWS site Feedback and Comments Disclaimer Vers la page française équivalente Tips FAQ What's new on the site To the Forecasts and Observations / NOTAM section To "File a Flight Plan" website Publications and other links Update of the User's profile FIC Telephone Numbers My Weather Data Folder Route Weather Data Regional Weather Data Local Weather Data To the Forecasts and Observations / NOTAM section
Request Generated 10/17/2017 at 01:44:49 UTC . Weather information available at that time is displayed.

METAR/TAF

PRINCE ALBERT (GLASS FIELD)/SK    

METAR CYPA 170100Z VRB02KT 15SM FEW120 SCT250 08/M02 A2975 RMK AC2CI2
SLP094=
METAR CYPA 170000Z 24006KT 15SM SCT120 BKN250 12/M01 A2976 RMK AC3CI2
SLP096 DENSITY ALT 1600FT=
METAR CYPA 162300Z 27007KT 15SM SCT130 BKN250 14/M01 A2976 RMK AC4CI2
SLP095 DENSITY ALT 1800FT=

TAF CYPA 170038Z 1701/1713 24006KT P6SM SCT120 BKN250
BECMG 1705/1707 09006KT
RMK NXT FCST BY 170700Z=
Your time UTC time
Weather data provided by Environment Canada and NAV CANADA